Terminal Aerodrome Forecast
Issued by NWS Memphis, TN

Home | Current Version | Previous Version | Text Only | Print | Product List | Glossary On
Versions: 1 2 3 4 5 6 7 8 9 10 11 12 13 14 15 16 17 18 19 20 21 22 23 24 25
000
FTUS44 KMEG 250530
TAFMEM
TAF
KMEM 250530Z 2506/2606 15017G29KT P6SM SCT040 BKN100 OVC250
     FM250700 18018G30KT P6SM SHRA VCSH BKN030 BKN150
     FM250900 18020G28KT 5SM -TSRA BKN025CB
      TEMPO 2510/2512 2SM +TSRA BKN012CB
     FM251300 18018G25KT P6SM VCSH OVC015
     FM251500 18015G25KT P6SM VCTS BKN035CB
      TEMPO 2516/2517 3SM TSRA BKN025CB
     FM251900 19017G25KT P6SM VCSH SCT020 OVC200
     FM260100 22007KT P6SM SCT020 BKN060=

USA.gov is the U.S. government's official web portal to all federal, state and local government web resources and services.